Festus, Missouri
Current Conditions -  °F | °C
As of 9:53 AM on Thursday 30 Oct 2014 (Local Time) from KCPS Reporting Station
Broken Clouds Broken Clouds  
Wind Chill: 45°   Ceiling: 9000
Heat Index: 49°   Visibility: 10mi
Dew Point: 40°   Wind: 8mph
Humidity: 71%   Direction: 160°SSE
Pressure: 30.15"   Gusts: NA
Location:  38.22°N, 90.4°W
Report Text: KCPS 301453Z 16007KT 10SM BKN090 BKN120 09/04 A3015 RMK AO2 SLP210 T00940044 56006
Loading
Personal Weather Stations






























Interactive Weather Map
Tropical Storm Tracking
New forecast layout! Learn more

10-Day Weather Forecast

Advertisements
Track Severe Weather on mobile